sensor_id;sensor_type;location;lat;lon;timestamp;P1;durP1;ratioP1;P2;durP2;ratioP2
62435;SDS011;48480;50.252;18.848;2023-07-31T00:01:32;5.10;;;3.40;;
62435;SDS011;48480;50.252;18.848;2023-07-31T00:04:17;6.40;;;3.50;;
62435;SDS011;48480;50.252;18.848;2023-07-31T00:07:01;4.70;;;3.60;;
62435;SDS011;48480;50.252;18.848;2023-07-31T00:09:48;6.50;;;3.60;;
62435;SDS011;48480;50.252;18.848;2023-07-31T00:12:32;5.90;;;3.70;;
62435;SDS011;48480;50.252;18.848;2023-07-31T00:15:17;4.80;;;3.60;;
62435;SDS011;48480;50.252;18.848;2023-07-31T00:18:01;7.10;;;3.90;;
62435;SDS011;48480;50.252;18.848;2023-07-31T00:20:46;4.40;;;3.30;;
62435;SDS011;48480;50.252;18.848;2023-07-31T00:23:31;5.70;;;3.60;;
62435;SDS011;48480;50.252;18.848;2023-07-31T00:26:15;6.80;;;3.70;;
62435;SDS011;48480;50.252;18.848;2023-07-31T00:29:00;5.40;;;3.20;;
62435;SDS011;48480;50.252;18.848;2023-07-31T00:31:45;7.20;;;3.50;;
62435;SDS011;48480;50.252;18.848;2023-07-31T00:34:29;5.10;;;3.60;;
62435;SDS011;48480;50.252;18.848;2023-07-31T00:37:13;4.90;;;3.90;;
62435;SDS011;48480;50.252;18.848;2023-07-31T00:39:59;5.00;;;3.50;;
62435;SDS011;48480;50.252;18.848;2023-07-31T00:42:45;6.00;;;3.90;;
62435;SDS011;48480;50.252;18.848;2023-07-31T00:45:29;4.60;;;3.90;;
62435;SDS011;48480;50.252;18.848;2023-07-31T00:48:14;5.60;;;3.60;;
62435;SDS011;48480;50.252;18.848;2023-07-31T00:50:58;5.10;;;3.80;;
62435;SDS011;48480;50.252;18.848;2023-07-31T00:53:45;8.20;;;4.10;;
62435;SDS011;48480;50.252;18.848;2023-07-31T00:56:30;6.20;;;4.60;;
62435;SDS011;48480;50.252;18.848;2023-07-31T00:59:14;5.90;;;4.20;;
62435;SDS011;48480;50.252;18.848;2023-07-31T01:01:58;5.30;;;3.50;;
62435;SDS011;48480;50.252;18.848;2023-07-31T01:04:43;4.80;;;4.00;;
62435;SDS011;48480;50.252;18.848;2023-07-31T01:07:35;8.30;;;3.60;;
62435;SDS011;48480;50.252;18.848;2023-07-31T01:10:50;4.20;;;3.60;;
62435;SDS011;48480;50.252;18.848;2023-07-31T01:13:39;5.20;;;3.10;;
62435;SDS011;48480;50.252;18.848;2023-07-31T01:16:25;7.80;;;3.60;;
62435;SDS011;48480;50.252;18.848;2023-07-31T01:19:10;4.60;;;3.50;;
62435;SDS011;48480;50.252;18.848;2023-07-31T01:22:12;4.70;;;3.40;;
62435;SDS011;48480;50.252;18.848;2023-07-31T01:28:20;6.30;;;3.30;;
62435;SDS011;48480;50.252;18.848;2023-07-31T01:31:09;4.20;;;3.30;;
62435;SDS011;48480;50.252;18.848;2023-07-31T01:34:02;5.50;;;3.70;;
62435;SDS011;48480;50.252;18.848;2023-07-31T01:36:53;5.40;;;3.00;;
62435;SDS011;48480;50.252;18.848;2023-07-31T01:39:37;5.90;;;3.30;;
62435;SDS011;48480;50.252;18.848;2023-07-31T01:42:22;4.30;;;2.90;;
62435;SDS011;48480;50.252;18.848;2023-07-31T01:45:06;4.90;;;3.20;;
62435;SDS011;48480;50.252;18.848;2023-07-31T01:47:50;3.80;;;3.20;;
62435;SDS011;48480;50.252;18.848;2023-07-31T01:50:35;4.10;;;2.80;;
62435;SDS011;48480;50.252;18.848;2023-07-31T01:53:19;4.40;;;3.10;;
62435;SDS011;48480;50.252;18.848;2023-07-31T01:56:04;3.80;;;3.00;;
62435;SDS011;48480;50.252;18.848;2023-07-31T01:58:48;5.00;;;3.00;;
62435;SDS011;48480;50.252;18.848;2023-07-31T02:01:33;3.90;;;2.80;;
62435;SDS011;48480;50.252;18.848;2023-07-31T02:04:19;4.60;;;3.10;;
62435;SDS011;48480;50.252;18.848;2023-07-31T02:07:03;2.90;;;2.50;;
62435;SDS011;48480;50.252;18.848;2023-07-31T02:09:47;4.00;;;2.50;;
62435;SDS011;48480;50.252;18.848;2023-07-31T02:12:31;3.30;;;2.70;;
62435;SDS011;48480;50.252;18.848;2023-07-31T02:15:17;3.60;;;2.00;;
62435;SDS011;48480;50.252;18.848;2023-07-31T02:18:02;3.30;;;2.00;;
62435;SDS011;48480;50.252;18.848;2023-07-31T02:20:52;2.90;;;2.10;;
62435;SDS011;48480;50.252;18.848;2023-07-31T02:23:36;3.80;;;2.10;;
62435;SDS011;48480;50.252;18.848;2023-07-31T02:26:20;2.70;;;1.80;;
62435;SDS011;48480;50.252;18.848;2023-07-31T02:29:05;4.30;;;1.90;;
62435;SDS011;48480;50.252;18.848;2023-07-31T02:31:49;3.00;;;2.20;;
62435;SDS011;48480;50.252;18.848;2023-07-31T02:34:34;3.50;;;2.00;;
62435;SDS011;48480;50.252;18.848;2023-07-31T02:37:18;3.50;;;1.90;;
62435;SDS011;48480;50.252;18.848;2023-07-31T02:40:03;2.40;;;1.90;;
62435;SDS011;48480;50.252;18.848;2023-07-31T02:42:47;2.10;;;1.80;;
62435;SDS011;48480;50.252;18.848;2023-07-31T02:45:31;4.20;;;1.90;;
62435;SDS011;48480;50.252;18.848;2023-07-31T02:48:15;4.00;;;1.50;;
62435;SDS011;48480;50.252;18.848;2023-07-31T02:50:59;4.60;;;1.70;;
62435;SDS011;48480;50.252;18.848;2023-07-31T02:53:44;2.60;;;1.60;;
62435;SDS011;48480;50.252;18.848;2023-07-31T02:56:28;2.90;;;1.70;;
62435;SDS011;48480;50.252;18.848;2023-07-31T02:59:12;2.30;;;1.90;;
62435;SDS011;48480;50.252;18.848;2023-07-31T03:01:57;4.40;;;2.50;;
62435;SDS011;48480;50.252;18.848;2023-07-31T03:04:41;3.20;;;2.00;;
62435;SDS011;48480;50.252;18.848;2023-07-31T03:07:25;4.10;;;1.80;;
62435;SDS011;48480;50.252;18.848;2023-07-31T03:10:09;2.00;;;1.50;;
62435;SDS011;48480;50.252;18.848;2023-07-31T03:12:53;3.10;;;1.60;;
62435;SDS011;48480;50.252;18.848;2023-07-31T03:15:37;3.70;;;1.90;;
62435;SDS011;48480;50.252;18.848;2023-07-31T03:18:21;2.60;;;1.80;;
62435;SDS011;48480;50.252;18.848;2023-07-31T03:21:05;4.80;;;2.10;;
62435;SDS011;48480;50.252;18.848;2023-07-31T03:23:49;4.00;;;2.10;;
62435;SDS011;48480;50.252;18.848;2023-07-31T03:26:34;3.70;;;1.80;;
62435;SDS011;48480;50.252;18.848;2023-07-31T03:29:19;3.80;;;1.80;;
62435;SDS011;48480;50.252;18.848;2023-07-31T03:32:03;4.10;;;1.60;;
62435;SDS011;48480;50.252;18.848;2023-07-31T03:34:47;3.30;;;1.70;;
62435;SDS011;48480;50.252;18.848;2023-07-31T03:37:31;3.00;;;1.60;;
62435;SDS011;48480;50.252;18.848;2023-07-31T03:40:15;4.80;;;1.80;;
62435;SDS011;48480;50.252;18.848;2023-07-31T03:42:59;3.20;;;1.80;;
62435;SDS011;48480;50.252;18.848;2023-07-31T03:45:44;3.30;;;1.80;;
62435;SDS011;48480;50.252;18.848;2023-07-31T03:48:29;3.10;;;2.00;;
62435;SDS011;48480;50.252;18.848;2023-07-31T03:51:13;3.70;;;2.20;;
62435;SDS011;48480;50.252;18.848;2023-07-31T03:53:57;4.10;;;1.80;;
62435;SDS011;48480;50.252;18.848;2023-07-31T03:56:41;3.40;;;1.80;;
62435;SDS011;48480;50.252;18.848;2023-07-31T03:59:25;2.60;;;1.80;;
62435;SDS011;48480;50.252;18.848;2023-07-31T04:02:09;2.70;;;1.80;;
62435;SDS011;48480;50.252;18.848;2023-07-31T04:04:53;6.70;;;2.30;;
62435;SDS011;48480;50.252;18.848;2023-07-31T04:07:37;5.30;;;2.10;;
62435;SDS011;48480;50.252;18.848;2023-07-31T04:10:22;3.50;;;1.60;;
62435;SDS011;48480;50.252;18.848;2023-07-31T04:13:06;4.70;;;2.10;;
62435;SDS011;48480;50.252;18.848;2023-07-31T04:15:50;3.70;;;2.00;;
62435;SDS011;48480;50.252;18.848;2023-07-31T04:18:34;3.40;;;2.30;;
62435;SDS011;48480;50.252;18.848;2023-07-31T04:21:18;3.20;;;1.90;;
62435;SDS011;48480;50.252;18.848;2023-07-31T04:24:02;5.50;;;2.20;;
62435;SDS011;48480;50.252;18.848;2023-07-31T04:26:47;3.50;;;1.90;;
62435;SDS011;48480;50.252;18.848;2023-07-31T04:29:31;2.50;;;1.80;;
62435;SDS011;48480;50.252;18.848;2023-07-31T04:32:16;3.80;;;1.90;;
62435;SDS011;48480;50.252;18.848;2023-07-31T04:35:01;5.30;;;1.80;;
62435;SDS011;48480;50.252;18.848;2023-07-31T04:37:45;4.20;;;1.80;;
62435;SDS011;48480;50.252;18.848;2023-07-31T04:40:32;3.30;;;2.30;;
62435;SDS011;48480;50.252;18.848;2023-07-31T04:43:16;3.30;;;2.10;;
62435;SDS011;48480;50.252;18.848;2023-07-31T04:46:01;3.50;;;2.10;;
62435;SDS011;48480;50.252;18.848;2023-07-31T04:48:45;6.20;;;2.50;;
62435;SDS011;48480;50.252;18.848;2023-07-31T04:51:29;4.00;;;1.80;;
62435;SDS011;48480;50.252;18.848;2023-07-31T04:54:13;4.30;;;1.90;;
62435;SDS011;48480;50.252;18.848;2023-07-31T04:56:58;5.90;;;2.10;;
62435;SDS011;48480;50.252;18.848;2023-07-31T04:59:42;3.20;;;2.40;;
62435;SDS011;48480;50.252;18.848;2023-07-31T05:02:26;5.40;;;2.30;;
62435;SDS011;48480;50.252;18.848;2023-07-31T05:05:12;4.00;;;1.80;;
62435;SDS011;48480;50.252;18.848;2023-07-31T05:07:56;4.50;;;2.20;;
62435;SDS011;48480;50.252;18.848;2023-07-31T05:10:40;4.00;;;2.30;;
62435;SDS011;48480;50.252;18.848;2023-07-31T05:13:24;4.30;;;2.10;;
62435;SDS011;48480;50.252;18.848;2023-07-31T05:16:08;4.00;;;2.00;;
62435;SDS011;48480;50.252;18.848;2023-07-31T05:18:52;5.90;;;2.30;;
62435;SDS011;48480;50.252;18.848;2023-07-31T05:21:36;4.40;;;2.00;;
62435;SDS011;48480;50.252;18.848;2023-07-31T05:24:20;3.30;;;1.90;;
62435;SDS011;48480;50.252;18.848;2023-07-31T05:27:05;4.00;;;1.70;;
62435;SDS011;48480;50.252;18.848;2023-07-31T05:29:49;4.60;;;1.70;;
62435;SDS011;48480;50.252;18.848;2023-07-31T05:32:33;3.00;;;1.70;;
62435;SDS011;48480;50.252;18.848;2023-07-31T05:35:17;3.80;;;1.90;;
62435;SDS011;48480;50.252;18.848;2023-07-31T05:38:01;2.20;;;1.70;;
62435;SDS011;48480;50.252;18.848;2023-07-31T05:40:46;2.70;;;1.90;;
62435;SDS011;48480;50.252;18.848;2023-07-31T05:43:30;6.60;;;2.30;;
62435;SDS011;48480;50.252;18.848;2023-07-31T05:46:14;2.20;;;1.40;;
62435;SDS011;48480;50.252;18.848;2023-07-31T05:48:58;2.50;;;1.50;;
62435;SDS011;48480;50.252;18.848;2023-07-31T05:51:44;4.20;;;2.00;;
62435;SDS011;48480;50.252;18.848;2023-07-31T05:54:28;2.90;;;1.60;;
62435;SDS011;48480;50.252;18.848;2023-07-31T05:57:13;2.10;;;1.50;;
62435;SDS011;48480;50.252;18.848;2023-07-31T05:59:57;3.50;;;1.70;;
62435;SDS011;48480;50.252;18.848;2023-07-31T06:02:41;3.70;;;1.60;;
62435;SDS011;48480;50.252;18.848;2023-07-31T06:05:25;2.80;;;1.60;;
62435;SDS011;48480;50.252;18.848;2023-07-31T06:08:12;3.70;;;1.70;;
62435;SDS011;48480;50.252;18.848;2023-07-31T06:10:56;4.60;;;1.80;;
62435;SDS011;48480;50.252;18.848;2023-07-31T06:13:40;5.10;;;1.60;;
62435;SDS011;48480;50.252;18.848;2023-07-31T06:16:24;4.80;;;1.60;;
62435;SDS011;48480;50.252;18.848;2023-07-31T06:19:09;2.90;;;1.50;;
62435;SDS011;48480;50.252;18.848;2023-07-31T06:21:53;4.40;;;1.50;;
62435;SDS011;48480;50.252;18.848;2023-07-31T06:24:37;4.30;;;1.60;;
62435;SDS011;48480;50.252;18.848;2023-07-31T06:27:21;5.00;;;1.40;;
62435;SDS011;48480;50.252;18.848;2023-07-31T06:30:05;4.40;;;1.50;;
62435;SDS011;48480;50.252;18.848;2023-07-31T06:32:50;2.90;;;1.50;;
62435;SDS011;48480;50.252;18.848;2023-07-31T06:35:34;4.50;;;1.50;;
62435;SDS011;48480;50.252;18.848;2023-07-31T06:38:21;4.40;;;1.50;;
62435;SDS011;48480;50.252;18.848;2023-07-31T06:41:08;4.90;;;1.50;;
62435;SDS011;48480;50.252;18.848;2023-07-31T06:43:51;3.60;;;1.50;;
62435;SDS011;48480;50.252;18.848;2023-07-31T06:46:35;4.40;;;1.50;;
62435;SDS011;48480;50.252;18.848;2023-07-31T06:49:20;3.10;;;1.30;;
62435;SDS011;48480;50.252;18.848;2023-07-31T06:52:05;2.40;;;1.30;;
62435;SDS011;48480;50.252;18.848;2023-07-31T06:55:02;5.40;;;1.70;;
62435;SDS011;48480;50.252;18.848;2023-07-31T06:57:59;3.30;;;1.50;;
62435;SDS011;48480;50.252;18.848;2023-07-31T07:00:43;5.20;;;1.40;;
62435;SDS011;48480;50.252;18.848;2023-07-31T07:03:27;4.10;;;1.50;;
62435;SDS011;48480;50.252;18.848;2023-07-31T07:06:11;3.70;;;1.60;;
62435;SDS011;48480;50.252;18.848;2023-07-31T07:08:55;4.00;;;1.50;;
62435;SDS011;48480;50.252;18.848;2023-07-31T07:11:39;4.50;;;1.70;;
62435;SDS011;48480;50.252;18.848;2023-07-31T07:14:23;3.10;;;1.40;;
62435;SDS011;48480;50.252;18.848;2023-07-31T07:17:07;3.70;;;1.50;;
62435;SDS011;48480;50.252;18.848;2023-07-31T07:19:52;3.10;;;1.40;;
62435;SDS011;48480;50.252;18.848;2023-07-31T07:22:36;3.10;;;1.40;;
62435;SDS011;48480;50.252;18.848;2023-07-31T07:25:20;4.00;;;1.50;;
62435;SDS011;48480;50.252;18.848;2023-07-31T07:28:04;3.70;;;1.70;;
62435;SDS011;48480;50.252;18.848;2023-07-31T07:30:52;3.50;;;1.50;;
62435;SDS011;48480;50.252;18.848;2023-07-31T07:33:37;6.40;;;2.00;;
62435;SDS011;48480;50.252;18.848;2023-07-31T07:36:22;4.30;;;2.00;;
62435;SDS011;48480;50.252;18.848;2023-07-31T07:39:06;3.40;;;1.50;;
62435;SDS011;48480;50.252;18.848;2023-07-31T07:41:50;5.40;;;1.40;;
62435;SDS011;48480;50.252;18.848;2023-07-31T07:44:35;5.40;;;1.50;;
62435;SDS011;48480;50.252;18.848;2023-07-31T07:47:19;4.10;;;1.50;;
62435;SDS011;48480;50.252;18.848;2023-07-31T07:50:03;6.50;;;1.60;;
62435;SDS011;48480;50.252;18.848;2023-07-31T07:52:48;4.50;;;1.50;;
62435;SDS011;48480;50.252;18.848;2023-07-31T07:55:31;3.60;;;1.50;;
62435;SDS011;48480;50.252;18.848;2023-07-31T07:58:15;4.50;;;1.40;;
62435;SDS011;48480;50.252;18.848;2023-07-31T08:00:59;5.50;;;1.70;;
62435;SDS011;48480;50.252;18.848;2023-07-31T08:03:44;3.00;;;1.60;;
62435;SDS011;48480;50.252;18.848;2023-07-31T08:06:29;3.30;;;1.60;;
62435;SDS011;48480;50.252;18.848;2023-07-31T08:09:14;3.90;;;1.50;;
62435;SDS011;48480;50.252;18.848;2023-07-31T08:11:58;3.20;;;1.70;;
62435;SDS011;48480;50.252;18.848;2023-07-31T08:14:45;3.20;;;1.50;;
62435;SDS011;48480;50.252;18.848;2023-07-31T08:17:30;3.90;;;1.40;;
62435;SDS011;48480;50.252;18.848;2023-07-31T08:20:14;4.50;;;1.30;;
62435;SDS011;48480;50.252;18.848;2023-07-31T08:22:59;4.30;;;1.30;;
62435;SDS011;48480;50.252;18.848;2023-07-31T08:25:44;3.30;;;1.30;;
62435;SDS011;48480;50.252;18.848;2023-07-31T08:28:29;4.40;;;1.30;;
62435;SDS011;48480;50.252;18.848;2023-07-31T08:31:13;4.50;;;1.50;;
62435;SDS011;48480;50.252;18.848;2023-07-31T08:33:57;2.80;;;1.30;;
62435;SDS011;48480;50.252;18.848;2023-07-31T08:36:41;2.70;;;1.60;;
62435;SDS011;48480;50.252;18.848;2023-07-31T08:39:25;3.00;;;1.50;;
62435;SDS011;48480;50.252;18.848;2023-07-31T08:42:09;4.10;;;1.30;;
62435;SDS011;48480;50.252;18.848;2023-07-31T08:44:53;3.40;;;1.10;;
62435;SDS011;48480;50.252;18.848;2023-07-31T08:47:40;4.10;;;1.30;;
62435;SDS011;48480;50.252;18.848;2023-07-31T08:50:26;6.50;;;1.30;;
62435;SDS011;48480;50.252;18.848;2023-07-31T08:53:11;3.00;;;1.30;;
62435;SDS011;48480;50.252;18.848;2023-07-31T08:55:56;4.10;;;1.20;;
62435;SDS011;48480;50.252;18.848;2023-07-31T08:58:42;5.00;;;1.20;;
62435;SDS011;48480;50.252;18.848;2023-07-31T09:01:28;1.80;;;1.00;;
62435;SDS011;48480;50.252;18.848;2023-07-31T09:04:15;4.10;;;1.10;;
62435;SDS011;48480;50.252;18.848;2023-07-31T09:07:03;3.50;;;1.10;;
62435;SDS011;48480;50.252;18.848;2023-07-31T09:12:37;3.50;;;1.50;;
62435;SDS011;48480;50.252;18.848;2023-07-31T09:15:23;2.00;;;1.20;;
62435;SDS011;48480;50.252;18.848;2023-07-31T09:18:07;5.50;;;1.50;;
62435;SDS011;48480;50.252;18.848;2023-07-31T09:23:47;2.40;;;1.00;;
62435;SDS011;48480;50.252;18.848;2023-07-31T09:26:32;3.50;;;1.40;;
62435;SDS011;48480;50.252;18.848;2023-07-31T09:29:18;3.90;;;1.50;;
62435;SDS011;48480;50.252;18.848;2023-07-31T09:32:03;3.50;;;1.20;;
62435;SDS011;48480;50.252;18.848;2023-07-31T09:34:47;4.30;;;1.30;;
62435;SDS011;48480;50.252;18.848;2023-07-31T09:37:32;4.00;;;1.50;;
62435;SDS011;48480;50.252;18.848;2023-07-31T09:43:32;2.80;;;1.20;;
62435;SDS011;48480;50.252;18.848;2023-07-31T09:46:18;2.80;;;1.30;;
62435;SDS011;48480;50.252;18.848;2023-07-31T09:49:05;3.30;;;1.60;;
62435;SDS011;48480;50.252;18.848;2023-07-31T09:51:49;2.00;;;1.10;;
62435;SDS011;48480;50.252;18.848;2023-07-31T09:54:34;4.50;;;1.20;;
62435;SDS011;48480;50.252;18.848;2023-07-31T09:57:18;4.10;;;1.20;;
62435;SDS011;48480;50.252;18.848;2023-07-31T10:00:07;3.20;;;1.10;;
62435;SDS011;48480;50.252;18.848;2023-07-31T10:02:53;3.20;;;1.30;;
62435;SDS011;48480;50.252;18.848;2023-07-31T10:05:50;3.00;;;1.30;;
62435;SDS011;48480;50.252;18.848;2023-07-31T10:08:37;3.50;;;1.20;;
62435;SDS011;48480;50.252;18.848;2023-07-31T10:11:23;3.20;;;1.20;;
62435;SDS011;48480;50.252;18.848;2023-07-31T10:14:11;3.70;;;1.40;;
62435;SDS011;48480;50.252;18.848;2023-07-31T10:16:57;3.30;;;1.30;;
62435;SDS011;48480;50.252;18.848;2023-07-31T10:19:52;5.30;;;1.60;;
62435;SDS011;48480;50.252;18.848;2023-07-31T10:22:37;4.10;;;1.60;;
62435;SDS011;48480;50.252;18.848;2023-07-31T10:25:22;3.50;;;1.30;;
62435;SDS011;48480;50.252;18.848;2023-07-31T10:28:08;2.00;;;1.20;;
62435;SDS011;48480;50.252;18.848;2023-07-31T10:30:55;3.00;;;1.10;;
62435;SDS011;48480;50.252;18.848;2023-07-31T10:33:40;2.90;;;1.20;;
62435;SDS011;48480;50.252;18.848;2023-07-31T10:36:25;5.10;;;1.30;;
62435;SDS011;48480;50.252;18.848;2023-07-31T10:42:27;3.70;;;1.50;;
62435;SDS011;48480;50.252;18.848;2023-07-31T10:45:17;3.80;;;1.30;;
62435;SDS011;48480;50.252;18.848;2023-07-31T10:48:13;3.10;;;1.40;;
62435;SDS011;48480;50.252;18.848;2023-07-31T10:50:59;2.90;;;1.30;;
62435;SDS011;48480;50.252;18.848;2023-07-31T10:53:44;2.30;;;1.20;;
62435;SDS011;48480;50.252;18.848;2023-07-31T10:56:28;3.60;;;1.30;;
62435;SDS011;48480;50.252;18.848;2023-07-31T10:59:27;3.20;;;1.50;;
62435;SDS011;48480;50.252;18.848;2023-07-31T11:02:26;3.00;;;1.30;;
62435;SDS011;48480;50.252;18.848;2023-07-31T11:05:14;5.10;;;1.50;;
62435;SDS011;48480;50.252;18.848;2023-07-31T11:07:57;3.70;;;1.20;;
62435;SDS011;48480;50.252;18.848;2023-07-31T11:10:42;3.80;;;1.30;;
62435;SDS011;48480;50.252;18.848;2023-07-31T11:13:32;4.00;;;1.50;;
62435;SDS011;48480;50.252;18.848;2023-07-31T11:16:29;2.30;;;1.30;;
62435;SDS011;48480;50.252;18.848;2023-07-31T11:19:14;3.00;;;1.50;;
62435;SDS011;48480;50.252;18.848;2023-07-31T11:21:58;3.40;;;1.40;;
62435;SDS011;48480;50.252;18.848;2023-07-31T11:24:43;2.40;;;1.30;;
62435;SDS011;48480;50.252;18.848;2023-07-31T11:27:28;4.50;;;1.50;;
62435;SDS011;48480;50.252;18.848;2023-07-31T11:30:14;2.60;;;1.20;;
62435;SDS011;48480;50.252;18.848;2023-07-31T11:33:00;3.10;;;1.40;;
62435;SDS011;48480;50.252;18.848;2023-07-31T11:35:53;3.20;;;1.40;;
62435;SDS011;48480;50.252;18.848;2023-07-31T11:38:37;4.40;;;1.30;;
62435;SDS011;48480;50.252;18.848;2023-07-31T11:41:22;3.30;;;1.30;;
62435;SDS011;48480;50.252;18.848;2023-07-31T11:44:06;3.80;;;1.50;;
62435;SDS011;48480;50.252;18.848;2023-07-31T11:46:50;4.50;;;1.40;;
62435;SDS011;48480;50.252;18.848;2023-07-31T11:49:36;4.50;;;1.20;;
62435;SDS011;48480;50.252;18.848;2023-07-31T11:52:22;3.20;;;1.40;;
62435;SDS011;48480;50.252;18.848;2023-07-31T11:55:11;2.10;;;1.10;;
62435;SDS011;48480;50.252;18.848;2023-07-31T11:57:57;3.00;;;1.50;;
62435;SDS011;48480;50.252;18.848;2023-07-31T12:00:42;2.70;;;1.30;;
62435;SDS011;48480;50.252;18.848;2023-07-31T12:03:27;3.50;;;1.50;;
62435;SDS011;48480;50.252;18.848;2023-07-31T12:06:12;2.50;;;1.20;;
62435;SDS011;48480;50.252;18.848;2023-07-31T12:09:00;2.60;;;1.50;;
62435;SDS011;48480;50.252;18.848;2023-07-31T12:11:48;3.00;;;1.50;;
62435;SDS011;48480;50.252;18.848;2023-07-31T12:14:32;3.60;;;1.60;;
62435;SDS011;48480;50.252;18.848;2023-07-31T12:17:18;4.90;;;1.60;;
62435;SDS011;48480;50.252;18.848;2023-07-31T12:20:06;4.70;;;1.40;;
62435;SDS011;48480;50.252;18.848;2023-07-31T12:22:52;3.70;;;1.60;;
62435;SDS011;48480;50.252;18.848;2023-07-31T12:25:36;4.40;;;1.70;;
62435;SDS011;48480;50.252;18.848;2023-07-31T12:28:21;4.20;;;1.60;;
62435;SDS011;48480;50.252;18.848;2023-07-31T12:31:08;6.30;;;1.70;;
62435;SDS011;48480;50.252;18.848;2023-07-31T12:33:58;3.90;;;1.70;;
62435;SDS011;48480;50.252;18.848;2023-07-31T12:36:42;2.30;;;1.30;;
62435;SDS011;48480;50.252;18.848;2023-07-31T12:39:27;3.70;;;1.60;;
62435;SDS011;48480;50.252;18.848;2023-07-31T12:42:12;3.20;;;1.30;;
62435;SDS011;48480;50.252;18.848;2023-07-31T12:44:57;4.00;;;1.90;;
62435;SDS011;48480;50.252;18.848;2023-07-31T12:47:42;4.30;;;1.40;;
62435;SDS011;48480;50.252;18.848;2023-07-31T12:50:26;4.10;;;1.40;;
62435;SDS011;48480;50.252;18.848;2023-07-31T12:53:11;3.60;;;1.60;;
62435;SDS011;48480;50.252;18.848;2023-07-31T12:55:55;3.90;;;1.40;;
62435;SDS011;48480;50.252;18.848;2023-07-31T12:58:40;4.10;;;1.50;;
62435;SDS011;48480;50.252;18.848;2023-07-31T13:01:25;3.00;;;1.30;;
62435;SDS011;48480;50.252;18.848;2023-07-31T13:04:10;4.40;;;1.40;;
62435;SDS011;48480;50.252;18.848;2023-07-31T13:06:55;3.60;;;1.50;;
62435;SDS011;48480;50.252;18.848;2023-07-31T13:09:39;5.20;;;2.00;;
62435;SDS011;48480;50.252;18.848;2023-07-31T13:12:24;4.60;;;1.40;;
62435;SDS011;48480;50.252;18.848;2023-07-31T13:15:08;3.90;;;1.40;;
62435;SDS011;48480;50.252;18.848;2023-07-31T13:17:52;2.80;;;1.40;;
62435;SDS011;48480;50.252;18.848;2023-07-31T13:20:36;4.60;;;1.60;;
62435;SDS011;48480;50.252;18.848;2023-07-31T13:23:21;4.70;;;1.60;;
62435;SDS011;48480;50.252;18.848;2023-07-31T13:26:05;3.20;;;1.50;;
62435;SDS011;48480;50.252;18.848;2023-07-31T13:28:50;2.30;;;1.40;;
62435;SDS011;48480;50.252;18.848;2023-07-31T13:31:34;4.20;;;1.70;;
62435;SDS011;48480;50.252;18.848;2023-07-31T13:34:18;2.90;;;1.50;;
62435;SDS011;48480;50.252;18.848;2023-07-31T13:37:02;4.80;;;1.60;;
62435;SDS011;48480;50.252;18.848;2023-07-31T13:39:49;2.80;;;1.50;;
62435;SDS011;48480;50.252;18.848;2023-07-31T13:42:34;3.40;;;1.60;;
62435;SDS011;48480;50.252;18.848;2023-07-31T13:45:18;3.10;;;1.20;;
62435;SDS011;48480;50.252;18.848;2023-07-31T13:48:02;4.20;;;1.60;;
62435;SDS011;48480;50.252;18.848;2023-07-31T13:50:47;4.70;;;1.30;;
62435;SDS011;48480;50.252;18.848;2023-07-31T13:53:31;3.60;;;1.20;;
62435;SDS011;48480;50.252;18.848;2023-07-31T13:56:15;2.60;;;1.20;;
62435;SDS011;48480;50.252;18.848;2023-07-31T13:59:00;3.30;;;1.40;;
62435;SDS011;48480;50.252;18.848;2023-07-31T14:01:45;3.10;;;1.20;;
62435;SDS011;48480;50.252;18.848;2023-07-31T14:04:29;2.30;;;1.20;;
62435;SDS011;48480;50.252;18.848;2023-07-31T14:07:13;3.70;;;1.30;;
62435;SDS011;48480;50.252;18.848;2023-07-31T14:09:58;3.50;;;1.30;;
62435;SDS011;48480;50.252;18.848;2023-07-31T14:12:42;5.50;;;1.30;;
62435;SDS011;48480;50.252;18.848;2023-07-31T14:15:26;3.10;;;1.10;;
62435;SDS011;48480;50.252;18.848;2023-07-31T14:18:13;3.70;;;1.40;;
62435;SDS011;48480;50.252;18.848;2023-07-31T14:20:58;3.80;;;1.30;;
62435;SDS011;48480;50.252;18.848;2023-07-31T14:23:42;2.40;;;1.10;;
62435;SDS011;48480;50.252;18.848;2023-07-31T14:26:26;2.80;;;1.40;;
62435;SDS011;48480;50.252;18.848;2023-07-31T14:29:10;3.80;;;1.40;;
62435;SDS011;48480;50.252;18.848;2023-07-31T14:31:54;4.00;;;1.90;;
62435;SDS011;48480;50.252;18.848;2023-07-31T14:34:39;4.80;;;3.10;;
62435;SDS011;48480;50.252;18.848;2023-07-31T14:37:25;13.10;;;10.00;;
62435;SDS011;48480;50.252;18.848;2023-07-31T14:40:12;15.20;;;10.10;;
62435;SDS011;48480;50.252;18.848;2023-07-31T14:42:56;13.70;;;10.50;;
62435;SDS011;48480;50.252;18.848;2023-07-31T14:45:40;10.20;;;8.50;;
62435;SDS011;48480;50.252;18.848;2023-07-31T14:48:25;4.90;;;2.90;;
62435;SDS011;48480;50.252;18.848;2023-07-31T14:51:11;7.20;;;5.10;;
62435;SDS011;48480;50.252;18.848;2023-07-31T14:53:55;6.40;;;4.00;;
62435;SDS011;48480;50.252;18.848;2023-07-31T14:56:39;3.80;;;2.60;;
62435;SDS011;48480;50.252;18.848;2023-07-31T14:59:23;4.30;;;2.10;;
62435;SDS011;48480;50.252;18.848;2023-07-31T15:02:11;3.80;;;1.60;;
62435;SDS011;48480;50.252;18.848;2023-07-31T15:04:55;2.50;;;1.30;;
62435;SDS011;48480;50.252;18.848;2023-07-31T15:07:40;3.40;;;1.40;;
62435;SDS011;48480;50.252;18.848;2023-07-31T15:10:24;3.90;;;1.30;;
62435;SDS011;48480;50.252;18.848;2023-07-31T15:13:09;2.60;;;1.00;;
62435;SDS011;48480;50.252;18.848;2023-07-31T15:15:53;3.30;;;1.30;;
62435;SDS011;48480;50.252;18.848;2023-07-31T15:18:37;2.40;;;1.20;;
62435;SDS011;48480;50.252;18.848;2023-07-31T15:21:21;3.30;;;1.20;;
62435;SDS011;48480;50.252;18.848;2023-07-31T15:24:15;5.50;;;1.30;;
62435;SDS011;48480;50.252;18.848;2023-07-31T15:27:00;2.10;;;1.30;;
62435;SDS011;48480;50.252;18.848;2023-07-31T15:29:46;2.50;;;1.60;;
62435;SDS011;48480;50.252;18.848;2023-07-31T15:32:30;2.40;;;1.10;;
62435;SDS011;48480;50.252;18.848;2023-07-31T15:35:15;2.70;;;0.90;;
62435;SDS011;48480;50.252;18.848;2023-07-31T15:37:59;2.60;;;1.30;;
62435;SDS011;48480;50.252;18.848;2023-07-31T15:40:43;5.40;;;1.20;;
62435;SDS011;48480;50.252;18.848;2023-07-31T15:43:27;2.80;;;1.10;;
62435;SDS011;48480;50.252;18.848;2023-07-31T15:46:15;3.20;;;1.40;;
62435;SDS011;48480;50.252;18.848;2023-07-31T15:49:01;2.40;;;1.20;;
62435;SDS011;48480;50.252;18.848;2023-07-31T15:51:45;3.30;;;1.20;;
62435;SDS011;48480;50.252;18.848;2023-07-31T15:54:29;2.80;;;1.20;;
62435;SDS011;48480;50.252;18.848;2023-07-31T15:57:14;3.10;;;1.30;;
62435;SDS011;48480;50.252;18.848;2023-07-31T15:59:58;2.60;;;1.30;;
62435;SDS011;48480;50.252;18.848;2023-07-31T16:02:43;4.00;;;1.30;;
62435;SDS011;48480;50.252;18.848;2023-07-31T16:05:27;2.00;;;1.30;;
62435;SDS011;48480;50.252;18.848;2023-07-31T16:11:09;4.20;;;1.60;;
62435;SDS011;48480;50.252;18.848;2023-07-31T16:14:01;2.40;;;1.30;;
62435;SDS011;48480;50.252;18.848;2023-07-31T16:16:52;4.20;;;1.40;;
62435;SDS011;48480;50.252;18.848;2023-07-31T16:19:43;4.60;;;1.50;;
62435;SDS011;48480;50.252;18.848;2023-07-31T16:22:34;3.50;;;1.90;;
62435;SDS011;48480;50.252;18.848;2023-07-31T16:25:26;5.20;;;1.90;;
62435;SDS011;48480;50.252;18.848;2023-07-31T16:28:17;2.70;;;1.60;;
62435;SDS011;48480;50.252;18.848;2023-07-31T16:31:08;5.80;;;1.80;;
62435;SDS011;48480;50.252;18.848;2023-07-31T16:34:00;4.20;;;2.60;;
62435;SDS011;48480;50.252;18.848;2023-07-31T16:36:51;3.60;;;1.80;;
62435;SDS011;48480;50.252;18.848;2023-07-31T16:39:45;3.10;;;1.60;;